• Join FlightAware (Why Join?)
  • Login
  • US Flag 
11:29AM EDT


 

Airport Tracker/Info


-or-


 

Live Flight TrackerFlight Track Log ✈ EJA720 ✈ 05-May-2013 ✈ KCLT - KPBI

Flight Track Log - Related Links

Times and Time Zones

All times are in EDT time to prevent confusion due to time zone crossing. See the EJA720 flight status page for this flight to view local times or setup timezone preferences in your user account.

Time Position Orientation Groundspeed Altitude Reporting Facility
EDT Latitude Longitude Course Direction KTS MPH feet Rate Location/Type
02:10PM 35.2222 -80.9397 11° North 173 199 1,500  Level Atlanta Center
02:11PM 35.2742 -80.9275 11° North 214 246 4,700 3,000 Climbing Atlanta Center
02:12PM 35.3036 -80.8603 62° Northeast 267 307 7,700 1,920 Climbing Atlanta Center
02:12PM 35.2961 -80.8097 100° East 271 312 7,900 360 Climbing Atlanta Center
02:13PM 35.2969 -80.7689 89° East 278 320 8,100 1,680 Climbing Atlanta Center
02:13PM 35.2917 -80.7181 97° East 299 344 9,600 2,940 Climbing Atlanta Center
02:14PM 35.2256 -80.6725 151° Southeast 280 322 12,800 2,880 Climbing Atlanta Center
02:15PM 35.1369 -80.7092 199° South 286 329 15,400 3,060 Climbing Atlanta Center
02:16PM 35.0439 -80.7458 198° South 305 351 19,000 2,820 Climbing Atlanta Center
02:18PM 34.8647 -80.8256 200° South 339 390 24,200 2,340 Climbing Jacksonville Center
02:19PM 34.7672 -80.8683 200° South 369 425 26,300 1,620 Climbing Jacksonville Center
02:20PM 34.6550 -80.8961 192° South 398 458 27,500 1,320 Climbing Jacksonville Center
02:21PM 34.5361 -80.8839 175° South 414 476 29,000 1,500 Climbing Jacksonville Center
02:22PM 34.4072 -80.9119 190° South 424 488 30,500 1,500 Climbing Jacksonville Center
02:23PM 34.2908 -80.9447 193° South 424 488 32,000 1,440 Climbing Jacksonville Center
02:24PM 34.1908 -80.9469 181° South 424 488 33,400 1,440 Climbing Jacksonville Center
02:25PM 34.0736 -80.9344 175° South 417 480 34,900 1,500 Climbing Jacksonville Center
02:26PM 33.9611 -80.9394 182° South 417 480 36,400 1,500 Climbing Jacksonville Center
02:27PM 33.8464 -80.9422 181° South 417 480 37,900 780 Climbing Jacksonville Center
02:28PM 33.7297 -80.9472 182° South 417 480 38,000  Climbing Jacksonville Center
02:29PM 33.6067 -80.9525 182° South 422 486 38,000  Level Jacksonville Center
02:30PM 33.4836 -80.9575 182° South 438 504 38,000  Level Jacksonville Center
02:31PM 33.3603 -80.9603 181° South 438 504 38,000  Level Jacksonville Center
02:32PM 33.2394 -80.9678 183° South 438 504 38,000  Level Jacksonville Center
02:33PM 33.1144 -80.9731 182° South 444 511 38,000  Level Jacksonville Center
02:34PM 32.9911 -80.9756 181° South 444 511 38,000  Level Jacksonville Center
02:35PM 32.8681 -80.9808 182° South 444 511 38,000  Level Jacksonville Center
02:36PM 32.7431 -80.9858 182° South 444 511 38,000  Level Jacksonville Center
02:37PM 32.6178 -80.9908 182° South 444 511 38,000  Level Jacksonville Center
02:38PM 32.4967 -80.9936 181° South 439 505 38,000  Level Jacksonville Center
02:39PM 32.3589 -80.9792 175° South 439 505 38,000  Level Jacksonville Center
02:40PM 32.2500 -80.9667 174° South 449 517 38,000  Level Jacksonville Center
02:41PM 32.1100 -80.9550 176° South 454 522 38,000  Level Jacksonville Center
02:42PM 31.9844 -80.9428 175° South 460 529 38,000  Level Jacksonville Center
02:43PM 31.8736 -80.9356 177° South 460 529 38,000  Level Jacksonville Center
02:44PM 31.7358 -80.9236 176° South 460 529 38,000  Level Jacksonville Center
02:45PM 31.6083 -80.9142 176° South 460 529 38,000  Level Jacksonville Center
02:46PM 31.4953 -80.9044 176° South 460 529 38,000  Level Jacksonville Center
02:47PM 31.3594 -80.8928 176° South 454 522 38,000  Level Jacksonville Center
02:48PM 31.2342 -80.8856 177° South 460 529 38,000  Level Jacksonville Center
02:49PM 31.1064 -80.8714 175° South 455 524 38,000  Level Jacksonville Center
02:50PM 30.9811 -80.8619 176° South 460 529 38,000  Level Jacksonville Center
02:51PM 30.8556 -80.8525 176° South 460 529 38,000  Level Jacksonville Center
02:52PM 30.7322 -80.8408 175° South 460 529 38,000  Level Jacksonville Center
02:53PM 30.6089 -80.8314 176° South 455 524 38,000  Level Jacksonville Center
02:54PM 30.4856 -80.8194 175° South 455 524 38,000  Level Jacksonville Center
02:55PM 30.3603 -80.8103 176° South 455 524 38,000  Level Jacksonville Center
02:56PM 30.2389 -80.8008 176° South 450 518 38,000 -540 Level Jacksonville Center
02:57PM 30.1133 -80.7892 175° South 450 518 37,000 -1,020 Descending Jacksonville Center
02:58PM 29.9903 -80.7822 177° South 445 512 36,000 -540 Descending Jacksonville Center
02:59PM 29.8647 -80.7706 175° South 445 512 36,000  Level Jacksonville Center
03:00PM 29.7394 -80.7614 176° South 445 512 36,000  Level Jacksonville Center
03:01PM 29.6117 -80.7497 175° South 450 518 36,000  Level Jacksonville Center
03:04PM 29.2542 -80.7236 176° South 457 526 36,000  Level Miami Center
03:05PM 29.1250 -80.7144 176° South 457 526 36,000  Level Miami Center
03:06PM 29.0025 -80.7006 174° South 457 526 36,000  Level Miami Center
03:07PM 28.8683 -80.6414 159° South 477 549 36,000  Level Miami Center
03:08PM 28.7572 -80.5856 156° South 489 563 36,000 -1,380 Level Miami Center
03:09PM 28.6211 -80.5194 157° South 483 556 33,300 -2,700 Descending Miami Center
03:10PM 28.5039 -80.4614 156° South 468 539 30,700 -2,580 Descending Miami Center
03:11PM 28.3883 -80.4058 157° South 462 532 28,200 -2,520 Descending Miami Center
03:12PM 28.2828 -80.3647 161° South 447 514 25,700 -2,220 Descending Miami Center
03:13PM 28.1625 -80.3350 168° South 442 509 23,800 -2,160 Descending Miami Center
03:14PM 28.0214 -80.3025 169° South 461 531 21,400 -2,040 Descending Miami Center
03:16PM 27.9424 -80.1766 175° South  Level FlightAware Approximate
03:16PM 27.7847 -80.2461 175° South 447 514 17,800  Level Miami Center
03:17PM 27.6850 -80.2244 169° South 412 474 16,000 -1,800 Descending Miami Center
03:18PM 27.5750 -80.1978 168° South 407 468 14,200 -1,860 Descending Miami Center
03:19PM 27.4608 -80.1733 169° South 390 449 12,300 -1,740 Descending Miami Center
03:20PM 27.3653 -80.1494 167° South 368 423 10,800 -1,200 Descending Miami Center
03:21PM 27.2800 -80.1378 173° South 333 383 10,000 -660 Descending Miami Center
03:22PM 27.2056 -80.1100 162° South 309 356 9,500 -1,200 Descending Miami Center
03:23PM 27.1289 -80.0728 157° South 309 356 7,700 -1,860 Descending Miami Center
03:24PM 27.0464 -80.0333 157° South 304 350 5,800 -1,800 Descending Miami Center
03:25PM 26.9719 -79.9961 156° South 293 337 4,200 -900 Descending Miami Center
03:26PM 26.9014 -79.9803 169° South 278 320 4,000 -120 Descending Miami Center
03:27PM 26.8347 -79.9644 168° South 272 313 4,000  Level Miami Center
03:29PM 26.7310 -80.0542 265° West  Level Estimated
03:36PM 26.6832 -80.0956 110° East  Level Estimated
03:37PM 26.6832 -80.0956 110° East  Level Estimated
03:38PM 26.6832 -80.0956 110° East  Level Estimated
03:39PM 26.6832 -80.0956 110° East  Level Estimated
03:40PM 26.6832 -80.0956 110° East  Level Estimated
03:41PM 26.6832 -80.0956 110° East  Level Estimated
03:42PM 26.6832 -80.0956 110° East  Level Estimated